Time;durP1;ratioP1;P1;durP2;ratioP2;P2;SDS_P1;SDS_P2;PMS_P1;PMS_P2;Temp;Humidity;BMP_temperature;BMP_pressure;BME280_temperature;BME280_humidity;BME280_pressure;Samples;Min_cycle;Max_cycle;Signal;HPM_P1;HPM_P2
2022/10/03 00:02:54;;;;;;;2.60;0.63;;;;;;;-144.22;100.00;60274.75;6253333;28;20258;-70
2022/10/03 00:06:29;;;;;;;2.93;0.73;;;;;;;-144.22;100.00;60274.75;6179410;28;20248;-69
2022/10/03 00:09:55;;;;;;;0.60;0.60;;;;;;;-144.22;100.00;60274.75;6248646;28;20712;-70
2022/10/03 00:13:19;;;;;;;2.10;0.87;;;;;;;-144.22;100.00;60274.75;6252720;28;20669;-70
2022/10/03 00:16:25;;;;;;;2.40;1.10;;;;;;;-144.22;100.00;60274.75;6252611;28;20233;-70
2022/10/03 00:20:25;;;;;;;1.40;1.30;;;;;;;-144.22;100.00;60274.75;6235471;28;20241;-70
2022/10/03 00:23:34;;;;;;;3.53;1.50;;;;;;;-144.22;100.00;60274.75;6257184;28;20240;-70
2022/10/03 00:26:51;;;;;;;3.00;1.10;;;;;;;-144.22;100.00;60274.75;6239415;28;20230;-70
2022/10/03 00:30:12;;;;;;;1.90;1.50;;;;;;;-144.22;100.00;60274.75;6257635;28;20755;-70
2022/10/03 00:33:20;;;;;;;1.30;1.20;;;;;;;-144.22;100.00;60274.75;6263236;28;20706;-70
2022/10/03 00:36:33;;;;;;;1.67;1.17;;;;;;;-144.22;100.00;60274.75;6281525;28;20252;-70
2022/10/03 00:39:50;;;;;;;1.90;1.30;;;;;;;-144.22;100.00;60274.75;6283139;28;20252;-70
2022/10/03 00:43:12;;;;;;;1.73;1.10;;;;;;;-144.22;100.00;60274.75;6282155;28;20248;-70
2022/10/03 00:46:46;;;;;;;3.57;1.23;;;;;;;-144.22;100.00;60274.75;6241881;28;20593;-70
2022/10/03 00:50:22;;;;;;;1.80;1.07;;;;;;;-144.22;100.00;60274.75;6263714;28;20360;-70
2022/10/03 00:53:54;;;;;;;2.07;1.20;;;;;;;-144.22;100.00;60274.75;6263593;28;20226;-70
2022/10/03 00:57:12;;;;;;;1.80;1.50;;;;;;;-144.22;100.00;60274.75;6300671;28;20236;-70
2022/10/03 01:00:19;;;;;;;3.30;1.50;;;;;;;-144.22;100.00;60274.75;6306328;28;20239;-70
2022/10/03 01:03:24;;;;;;;3.80;1.57;;;;;;;-144.22;100.00;60274.75;6290057;28;20234;-69
2022/10/03 01:06:48;;;;;;;2.47;2.00;;;;;;;-144.22;100.00;60274.75;6257035;28;20275;-70
2022/10/03 01:10:14;;;;;;;6.07;1.67;;;;;;;-144.22;100.00;60274.75;6256427;28;20230;-69
2022/10/03 01:13:41;;;;;;;1.57;1.30;;;;;;;-144.22;100.00;60274.75;6238925;28;20235;-70
2022/10/03 01:17:04;;;;;;;4.53;1.60;;;;;;;-144.22;100.00;60274.75;6225368;28;20238;-69
2022/10/03 01:20:21;;;;;;;1.67;1.33;;;;;;;-144.22;100.00;60274.75;6255877;28;20234;-70
2022/10/03 01:23:44;;;;;;;2.30;1.30;;;;;;;-144.22;100.00;60274.75;6256466;28;20235;-70
2022/10/03 01:26:58;;;;;;;2.23;1.30;;;;;;;-144.22;100.00;60274.75;6237884;28;20234;-70
2022/10/03 01:30:22;;;;;;;3.90;1.50;;;;;;;-144.22;100.00;60274.75;6255834;28;20590;-70
2022/10/03 01:33:36;;;;;;;2.90;1.23;;;;;;;-144.22;100.00;60274.75;6245549;28;20227;-69
2022/10/03 01:36:44;;;;;;;2.83;1.57;;;;;;;-144.22;100.00;60274.75;6237284;28;20293;-69
2022/10/03 01:39:54;;;;;;;2.20;1.40;;;;;;;-144.22;100.00;60274.75;6238089;28;20814;-69
2022/10/03 01:43:13;;;;;;;2.10;1.40;;;;;;;-144.22;100.00;60274.75;6239991;28;20239;-70
2022/10/03 01:46:52;;;;;;;2.83;1.27;;;;;;;-144.22;100.00;60274.75;6260362;28;20246;-69
2022/10/03 01:50:07;;;;;;;1.97;1.53;;;;;;;-144.22;100.00;60274.75;6179314;28;20259;-70
2022/10/03 01:53:34;;;;;;;2.17;1.30;;;;;;;-144.22;100.00;60274.75;6179182;28;20605;-70
2022/10/03 01:56:43;;;;;;;2.13;1.53;;;;;;;-144.22;100.00;60274.75;6190310;28;20590;-69
2022/10/03 01:59:56;;;;;;;1.73;1.40;;;;;;;-144.22;100.00;60274.75;6202624;28;20231;-69
2022/10/03 02:03:07;;;;;;;3.30;1.60;;;;;;;-144.22;100.00;60274.75;6202294;28;20573;-71
2022/10/03 02:06:44;;;;;;;3.10;1.40;;;;;;;-144.22;100.00;60274.75;6203431;28;20215;-70
2022/10/03 02:10:10;;;;;;;3.77;1.77;;;;;;;-144.22;100.00;60274.75;6137934;28;20243;-69
2022/10/03 02:13:12;;;;;;;1.87;1.47;;;;;;;-144.22;100.00;60274.75;6202971;28;20240;-70
2022/10/03 02:16:52;;;;;;;2.50;1.73;;;;;;;-144.22;100.00;60274.75;6202234;28;20242;-69
2022/10/03 02:20:23;;;;;;;3.17;1.80;;;;;;;-144.22;100.00;60274.75;6201828;28;20685;-69
2022/10/03 02:23:31;;;;;;;2.90;1.70;;;;;;;-144.22;100.00;60274.75;6186934;28;20753;-70
2022/10/03 02:27:05;;;;;;;1.93;1.47;;;;;;;-144.22;100.00;60274.75;6270856;28;20255;-70
2022/10/03 02:30:16;;;;;;;5.20;1.63;;;;;;;-144.22;100.00;60274.75;6261662;28;20234;-70
2022/10/03 02:33:53;;;;;;;5.30;1.63;;;;;;;-144.22;100.00;60274.75;6278832;28;20226;-69
2022/10/03 02:37:36;;;;;;;2.77;1.30;;;;;;;-144.22;100.00;60274.75;6279469;28;20303;-70
2022/10/03 02:40:55;;;;;;;5.33;1.40;;;;;;;-144.22;100.00;60274.75;6278620;28;20610;-70
2022/10/03 02:44:18;;;;;;;3.40;1.50;;;;;;;-144.22;100.00;60274.75;6279311;28;20242;-70
2022/10/03 02:47:57;;;;;;;3.63;1.70;;;;;;;-144.22;100.00;60274.75;6277315;28;20279;-69
2022/10/03 02:51:41;;;;;;;2.17;1.47;;;;;;;-144.22;100.00;60274.75;6261028;28;20233;-70
2022/10/03 02:54:58;;;;;;;1.50;1.40;;;;;;;-144.22;100.00;60274.75;6279178;28;20723;-70
2022/10/03 02:58:46;;;;;;;2.13;1.70;;;;;;;-144.22;100.00;60274.75;6303370;28;20239;-69
2022/10/03 03:02:03;;;;;;;4.57;2.37;;;;;;;-144.22;100.00;60274.75;6265643;28;20332;-70
2022/10/03 03:05:26;;;;;;;4.83;2.30;;;;;;;-144.22;100.00;60274.75;6257186;28;20822;-69
2022/10/03 03:08:40;;;;;;;2.77;1.83;;;;;;;-144.22;100.00;60274.75;6253468;28;20233;-70
2022/10/03 03:12:01;;;;;;;2.33;1.47;;;;;;;-144.22;100.00;60274.75;6253646;28;20741;-69
2022/10/03 03:15:39;;;;;;;2.27;1.70;;;;;;;-144.22;100.00;60274.75;6251392;28;20364;-70
2022/10/03 03:18:48;;;;;;;4.73;1.63;;;;;;;-144.22;100.00;60274.75;6234002;28;20237;-69
2022/10/03 03:22:04;;;;;;;3.43;2.00;;;;;;;-144.22;100.00;60274.75;6253622;28;20262;-70
2022/10/03 03:25:28;;;;;;;3.80;2.00;;;;;;;-144.22;100.00;60274.75;6259493;28;20610;-70
2022/10/03 03:28:45;;;;;;;6.60;2.00;;;;;;;-144.22;100.00;60274.75;6253472;28;20239;-69
2022/10/03 03:32:14;;;;;;;2.80;2.00;;;;;;;-144.22;100.00;60274.75;6253566;28;20702;-69
2022/10/03 03:35:45;;;;;;;3.90;2.23;;;;;;;-144.22;100.00;60274.75;6260916;28;20784;-70
2022/10/03 03:38:55;;;;;;;3.77;1.93;;;;;;;-144.22;100.00;60274.75;6259494;28;20226;-70
2022/10/03 03:42:43;;;;;;;4.60;1.80;;;;;;;-144.22;100.00;60274.75;6277682;28;20245;-70
2022/10/03 03:46:03;;;;;;;2.00;1.37;;;;;;;-144.22;100.00;60274.75;6270687;28;20700;-70
2022/10/03 03:49:18;;;;;;;7.17;1.87;;;;;;;-144.22;100.00;60274.75;6277220;28;20788;-70
2022/10/03 03:53:01;;;;;;;4.10;1.37;;;;;;;-144.22;100.00;60274.75;6277905;28;20572;-69
2022/10/03 03:56:08;;;;;;;4.90;1.70;;;;;;;-144.22;100.00;60274.75;6238386;28;20237;-70
2022/10/03 03:59:13;;;;;;;7.27;1.77;;;;;;;-144.22;100.00;60274.75;6252525;28;20222;-69
2022/10/03 04:02:42;;;;;;;2.93;1.70;;;;;;;-144.22;100.00;60274.75;6257785;28;20250;-69
2022/10/03 04:05:47;;;;;;;2.50;2.00;;;;;;;-144.22;100.00;60274.75;6258540;28;20238;-69
2022/10/03 04:09:08;;;;;;;2.37;1.50;;;;;;;-144.22;100.00;60274.75;6257328;28;20685;-69
2022/10/03 04:12:20;;;;;;;3.13;1.90;;;;;;;-144.22;100.00;60274.75;6257498;28;20234;-69
2022/10/03 04:15:33;;;;;;;2.73;2.03;;;;;;;-144.22;100.00;60274.75;6255818;28;20677;-69
2022/10/03 04:18:56;;;;;;;3.37;1.70;;;;;;;-144.22;100.00;60274.75;6257201;28;20302;-70
2022/10/03 04:22:21;;;;;;;2.70;1.87;;;;;;;-144.22;100.00;60274.75;6256811;28;20238;-70
2022/10/03 04:25:45;;;;;;;1.93;1.60;;;;;;;-144.22;100.00;60274.75;6257477;28;20653;-70
2022/10/03 04:28:52;;;;;;;3.20;1.83;;;;;;;-144.22;100.00;60274.75;6258163;28;20325;-71
2022/10/03 04:31:55;;;;;;;2.73;1.63;;;;;;;-144.22;100.00;60274.75;6257103;28;20246;-69
2022/10/03 04:35:24;;;;;;;2.70;1.47;;;;;;;-144.22;100.00;60274.75;6258275;28;20701;-70
2022/10/03 04:38:48;;;;;;;2.93;1.87;;;;;;;-144.22;100.00;60274.75;6256312;28;20230;-70
2022/10/03 04:42:00;;;;;;;3.73;1.70;;;;;;;-144.22;100.00;60274.75;6257121;28;20591;-70
2022/10/03 04:45:39;;;;;;;7.27;1.60;;;;;;;-144.22;100.00;60274.75;6256600;28;20222;-69
2022/10/03 04:48:56;;;;;;;3.40;1.43;;;;;;;-144.22;100.00;60274.75;6239441;28;20276;-69
2022/10/03 04:52:16;;;;;;;3.50;1.70;;;;;;;-144.22;100.00;60274.75;6255803;28;20226;-70
2022/10/03 04:55:38;;;;;;;4.10;1.67;;;;;;;-144.22;100.00;60274.75;6248455;28;20605;-70
2022/10/03 04:59:03;;;;;;;3.73;1.63;;;;;;;-144.22;100.00;60274.75;6305430;28;20259;-70
2022/10/03 05:02:22;;;;;;;2.90;1.63;;;;;;;-144.22;100.00;60274.75;6305342;28;20245;-69
2022/10/03 05:05:35;;;;;;;1.87;1.40;;;;;;;-144.22;100.00;60274.75;6263911;28;20788;-70
2022/10/03 05:08:54;;;;;;;3.70;1.87;;;;;;;-144.22;100.00;60274.75;6280910;28;20226;-70
2022/10/03 05:12:19;;;;;;;2.03;1.40;;;;;;;-144.22;100.00;60274.75;6281165;28;20232;-70
2022/10/03 05:15:29;;;;;;;5.03;1.90;;;;;;;-144.22;100.00;60274.75;6279137;28;20719;-69
2022/10/03 05:18:40;;;;;;;2.43;1.60;;;;;;;-144.22;100.00;60274.75;6280997;28;20238;-69
2022/10/03 05:22:08;;;;;;;2.67;1.77;;;;;;;-144.22;100.00;60274.75;6279487;28;20237;-69
2022/10/03 05:25:27;;;;;;;4.37;1.90;;;;;;;-144.22;100.00;60274.75;6282612;28;20233;-69
2022/10/03 05:29:04;;;;;;;3.47;2.03;;;;;;;-144.22;100.00;60274.75;6279831;28;20230;-69
2022/10/03 05:32:18;;;;;;;3.50;1.60;;;;;;;-144.22;100.00;60274.75;6263225;28;20728;-69
2022/10/03 05:35:28;;;;;;;4.37;1.83;;;;;;;-144.22;100.00;60274.75;6279354;28;20328;-70
2022/10/03 05:38:57;;;;;;;5.27;2.23;;;;;;;-144.22;100.00;60274.75;6262470;28;20242;-70
2022/10/03 05:42:19;;;;;;;7.77;2.00;;;;;;;-144.22;100.00;60274.75;6281366;28;20247;-70
2022/10/03 05:45:40;;;;;;;3.37;1.50;;;;;;;-144.22;100.00;60274.75;6278091;28;20219;-70
2022/10/03 05:49:07;;;;;;;4.70;1.97;;;;;;;-144.22;100.00;60274.75;6279158;28;20233;-69
2022/10/03 05:52:13;;;;;;;3.00;1.93;;;;;;;-144.22;100.00;60274.75;6280426;28;20734;-70
2022/10/03 05:55:29;;;;;;;5.10;2.00;;;;;;;-144.22;100.00;60274.75;6284485;28;20231;-68
2022/10/03 05:59:12;;;;;;;4.17;2.00;;;;;;;-144.22;100.00;60274.75;6302435;28;20236;-69
2022/10/03 06:02:48;;;;;;;3.07;2.00;;;;;;;-144.22;100.00;60274.75;6303603;28;20236;-69
2022/10/03 06:05:51;;;;;;;4.17;1.80;;;;;;;-144.22;100.00;60274.75;6236533;28;20598;-69
2022/10/03 06:09:14;;;;;;;1.97;1.43;;;;;;;-144.22;100.00;60274.75;6237667;28;20312;-69
2022/10/03 06:12:33;;;;;;;10.90;2.17;;;;;;;-144.22;100.00;60274.75;6254605;28;20230;-70
2022/10/03 06:15:41;;;;;;;3.83;1.60;;;;;;;-144.22;100.00;60274.75;6254555;28;20309;-70
2022/10/03 06:19:17;;;;;;;4.70;1.67;;;;;;;-144.22;100.00;60274.75;6254716;28;20238;-69
2022/10/03 06:23:04;;;;;;;5.33;1.60;;;;;;;-144.22;100.00;60274.75;6253573;28;20697;-70
2022/10/03 06:26:44;;;;;;;5.30;1.67;;;;;;;-144.22;100.00;60274.75;6255149;28;20237;-69
2022/10/03 06:30:24;;;;;;;4.53;1.73;;;;;;;-144.22;100.00;60274.75;6236296;28;20659;-69
2022/10/03 06:33:44;;;;;;;6.60;1.80;;;;;;;-144.22;100.00;60274.75;6235714;28;20667;-70
2022/10/03 06:37:13;;;;;;;5.10;1.70;;;;;;;-144.22;100.00;60274.75;6253684;28;20592;-69
2022/10/03 06:40:38;;;;;;;4.50;1.43;;;;;;;-144.22;100.00;60274.75;6253906;28;20364;-70
2022/10/03 06:43:46;;;;;;;3.37;1.50;;;;;;;-144.22;100.00;60274.75;6254482;28;20242;-70
2022/10/03 06:47:15;;;;;;;3.70;1.67;;;;;;;-144.22;100.00;60274.75;6254640;28;20733;-71
2022/10/03 06:50:47;;;;;;;3.77;1.20;;;;;;;-144.22;100.00;60274.75;6253111;28;20602;-70
2022/10/03 06:54:20;;;;;;;4.77;1.40;;;;;;;-144.22;100.00;60274.75;6254321;28;20709;-70
2022/10/03 06:57:43;;;;;;;3.80;1.27;;;;;;;-144.22;100.00;60274.75;6299361;28;20569;-69
2022/10/03 07:01:13;;;;;;;2.43;1.53;;;;;;;-144.22;100.00;60274.75;6303128;28;20229;-71
2022/10/03 07:04:33;;;;;;;1.70;1.17;;;;;;;-144.22;100.00;60274.75;6272275;28;20659;-69
2022/10/03 07:08:02;;;;;;;3.00;1.00;;;;;;;-144.22;100.00;60274.75;6245497;28;20238;-70
2022/10/03 07:11:28;;;;;;;3.33;1.17;;;;;;;-144.22;100.00;60274.75;6253597;28;20231;-69
2022/10/03 07:14:54;;;;;;;2.33;1.20;;;;;;;-144.22;100.00;60274.75;6253406;28;20624;-70
2022/10/03 07:18:23;;;;;;;3.30;1.50;;;;;;;-144.22;100.00;60274.75;6234578;28;20231;-70
2022/10/03 07:22:07;;;;;;;2.93;1.17;;;;;;;-144.22;100.00;60274.75;6218133;28;20237;-70
2022/10/03 07:25:46;;;;;;;1.50;0.90;;;;;;;-144.22;100.00;60274.75;6236602;28;20250;-70
2022/10/03 07:29:06;;;;;;;3.27;1.40;;;;;;;-144.22;100.00;60274.75;6253319;28;20230;-71
2022/10/03 07:32:35;;;;;;;6.73;1.27;;;;;;;-144.22;100.00;60274.75;6252910;28;20233;-70
2022/10/03 07:39:22;;;;;;;1.90;0.90;;;;;;;-144.22;100.00;60274.75;6282049;28;20233;-69
2022/10/03 07:42:38;;;;;;;1.87;1.00;;;;;;;-144.22;100.00;60274.75;6280599;28;20226;-69
2022/10/03 07:46:02;;;;;;;6.23;1.30;;;;;;;-144.22;100.00;60274.75;6276807;28;20986;-68
2022/10/03 07:49:40;;;;;;;3.40;1.30;;;;;;;-144.22;100.00;60274.75;6255672;28;20238;-69
2022/10/03 07:53:16;;;;;;;1.50;0.87;;;;;;;-144.22;100.00;60274.75;6279364;28;20233;-68
2022/10/03 07:56:47;;;;;;;2.83;1.10;;;;;;;-144.22;100.00;60274.75;6295273;28;20708;-69
2022/10/03 07:59:58;;;;;;;4.77;1.60;;;;;;;-144.22;100.00;60274.75;6286773;28;20229;-68
2022/10/03 08:03:14;;;;;;;4.00;1.40;;;;;;;-144.22;100.00;60274.75;6281821;28;20230;-69
2022/10/03 08:06:37;;;;;;;2.87;1.23;;;;;;;-144.22;100.00;60274.75;6281520;28;20295;-68
2022/10/03 08:10:16;;;;;;;2.03;1.00;;;;;;;-144.22;100.00;60274.75;6281566;28;20227;-70
2022/10/03 08:13:24;;;;;;;4.33;1.87;;;;;;;-144.22;100.00;60274.75;6282194;28;20234;-71
2022/10/03 08:16:53;;;;;;;2.80;1.20;;;;;;;-144.22;100.00;60274.75;6281617;28;20238;-70
2022/10/03 08:20:25;;;;;;;2.97;1.30;;;;;;;-144.22;100.00;60274.75;6280814;28;20238;-71
2022/10/03 08:24:05;;;;;;;3.43;1.40;;;;;;;-144.22;100.00;60274.75;6281618;28;20230;-70
2022/10/03 08:27:25;;;;;;;3.53;1.20;;;;;;;-144.22;100.00;60274.75;6279373;28;20234;-71
2022/10/03 08:30:51;;;;;;;2.17;1.37;;;;;;;-144.22;100.00;60274.75;6266608;28;20245;-71
2022/10/03 08:34:21;;;;;;;5.00;1.40;;;;;;;-144.22;100.00;60274.75;6275457;28;20230;-72
2022/10/03 08:37:45;;;;;;;3.67;1.33;;;;;;;-144.22;100.00;60274.75;6281942;28;20226;-71
2022/10/03 08:41:24;;;;;;;4.83;1.27;;;;;;;-144.22;100.00;60274.75;6281266;28;20225;-71
2022/10/03 08:44:38;;;;;;;3.77;1.27;;;;;;;-144.22;100.00;60274.75;6282221;28;20261;-72
2022/10/03 08:47:59;;;;;;;5.27;1.40;;;;;;;-144.22;100.00;60274.75;6281208;28;20722;-71
2022/10/03 08:51:04;;;;;;;3.37;1.10;;;;;;;-144.22;100.00;60274.75;6282591;28;20399;-72
2022/10/03 08:54:29;;;;;;;3.20;1.30;;;;;;;-144.22;100.00;60274.75;6281973;28;20218;-71
2022/10/03 08:57:40;;;;;;;3.63;1.20;;;;;;;-144.22;100.00;60274.75;6304532;28;20291;-69
2022/10/03 09:01:18;;;;;;;1.73;1.30;;;;;;;-144.22;100.00;60274.75;6305826;28;20225;-70
2022/10/03 09:04:38;;;;;;;3.10;1.60;;;;;;;-144.22;100.00;60274.75;6166748;28;20233;-71
2022/10/03 09:07:57;;;;;;;4.10;1.40;;;;;;;-144.22;100.00;60274.75;6257508;28;20325;-71
2022/10/03 09:11:02;;;;;;;2.47;1.30;;;;;;;-144.22;100.00;60274.75;6256367;28;20737;-71
2022/10/03 09:14:41;;;;;;;2.63;1.23;;;;;;;-144.22;100.00;60274.75;6256311;28;20235;-72
2022/10/03 09:18:20;;;;;;;3.20;1.30;;;;;;;-144.22;100.00;60274.75;6230075;28;20232;-71
2022/10/03 09:22:08;;;;;;;2.73;0.83;;;;;;;-144.22;100.00;60274.75;6227878;28;20698;-63
2022/10/03 09:25:28;;;;;;;4.30;1.40;;;;;;;-144.22;100.00;60274.75;6178431;28;20786;-71
2022/10/03 09:28:51;;;;;;;3.00;0.87;;;;;;;-144.22;100.00;60274.75;6230007;28;20235;-71
2022/10/03 09:32:36;;;;;;;4.73;1.00;;;;;;;-144.22;100.00;60274.75;6229776;28;20235;-71
2022/10/03 09:35:41;;;;;;;2.80;0.90;;;;;;;-144.22;100.00;60274.75;6230070;28;20680;-71
2022/10/03 09:38:54;;;;;;;3.30;1.40;;;;;;;-144.22;100.00;60274.75;6229451;28;20224;-70
2022/10/03 09:42:24;;;;;;;2.13;1.00;;;;;;;-144.22;100.00;60274.75;6228012;28;20251;-71
2022/10/03 09:45:48;;;;;;;4.50;0.97;;;;;;;-144.22;100.00;60274.75;6228413;28;20235;-70
2022/10/03 09:48:59;;;;;;;2.17;0.80;;;;;;;-144.22;100.00;60274.75;6230210;28;20243;-71
2022/10/03 09:52:28;;;;;;;1.77;0.90;;;;;;;-144.22;100.00;60274.75;6229631;28;20700;-71
2022/10/03 09:56:03;;;;;;;2.80;0.97;;;;;;;-144.22;100.00;60274.75;6242716;28;20233;-70
2022/10/03 09:59:20;;;;;;;3.73;1.00;;;;;;;-144.22;100.00;60274.75;6276930;28;20233;-71
2022/10/03 10:02:56;;;;;;;2.87;0.80;;;;;;;-144.22;100.00;60274.75;6277134;28;20226;-70
2022/10/03 10:06:19;;;;;;;3.43;0.87;;;;;;;-144.22;100.00;60274.75;6230136;28;20276;-71
2022/10/03 10:09:45;;;;;;;1.40;0.70;;;;;;;-144.22;100.00;60274.75;6227700;28;20267;-70
2022/10/03 10:13:15;;;;;;;1.33;0.90;;;;;;;-144.22;100.00;60274.75;6229281;28;20228;-70
2022/10/03 10:16:22;;;;;;;1.93;1.00;;;;;;;-144.22;100.00;60274.75;6197603;28;1264305;-71
2022/10/03 10:19:30;;;;;;;2.40;1.00;;;;;;;-144.22;100.00;60274.75;6255528;28;20242;-70
2022/10/03 10:23:03;;;;;;;1.77;0.67;;;;;;;-144.22;100.00;60274.75;6254633;28;20240;-70
2022/10/03 10:26:33;;;;;;;4.10;1.13;;;;;;;-144.22;100.00;60274.75;6252877;28;20245;-70
2022/10/03 10:30:19;;;;;;;1.93;1.03;;;;;;;-144.22;100.00;60274.75;6254340;28;20227;-71
2022/10/03 10:33:58;;;;;;;2.70;1.00;;;;;;;-144.22;100.00;60274.75;6261738;28;20405;-70
2022/10/03 10:37:45;;;;;;;0.83;0.70;;;;;;;-144.22;100.00;60274.75;6260659;28;20706;-70
2022/10/03 10:41:11;;;;;;;4.43;1.00;;;;;;;-144.22;100.00;60274.75;6267774;28;20226;-70
2022/10/03 10:44:48;;;;;;;4.87;0.97;;;;;;;-144.22;100.00;60274.75;6279938;28;20242;-71
2022/10/03 10:48:09;;;;;;;2.70;1.10;;;;;;;-144.22;100.00;60274.75;6261583;28;20234;-70
2022/10/03 10:51:58;;;;;;;2.37;1.00;;;;;;;-144.22;100.00;60274.75;6283217;28;20214;-70
2022/10/03 10:55:13;;;;;;;1.80;0.87;;;;;;;-144.22;100.00;60274.75;6258249;28;20227;-70
2022/10/03 10:58:37;;;;;;;1.30;0.83;;;;;;;-144.22;100.00;60274.75;6253308;28;20235;-71
2022/10/03 11:01:53;;;;;;;4.35;1.05;;;;;;;-144.22;100.00;60274.75;6234414;28;20227;-70
2022/10/03 11:05:17;;;;;;;4.60;1.03;;;;;;;-144.22;100.00;60274.75;6236189;28;20223;-70
2022/10/03 11:08:35;;;;;;;2.10;0.80;;;;;;;-144.22;100.00;60274.75;6257095;28;20289;-70
2022/10/03 11:11:38;;;;;;;4.03;1.00;;;;;;;-144.22;100.00;60274.75;6254337;28;20235;-71
2022/10/03 11:14:46;;;;;;;2.57;0.70;;;;;;;-144.22;100.00;60274.75;6257116;28;20218;-70
2022/10/03 11:18:26;;;;;;;3.83;1.03;;;;;;;-144.22;100.00;60274.75;6277172;28;20602;-69
2022/10/03 11:21:49;;;;;;;1.83;0.93;;;;;;;17.08;100.00;80039.56;6274475;28;20786;-70
2022/10/03 11:25:17;;;;;;;3.73;1.00;;;;;;;-144.22;100.00;60274.75;6278876;28;20230;-70
2022/10/03 11:28:25;;;;;;;3.90;1.40;;;;;;;-144.22;100.00;60274.75;6259182;28;20680;-70
2022/10/03 11:31:59;;;;;;;2.43;1.40;;;;;;;-144.22;100.00;60274.75;6260423;28;20598;-70
2022/10/03 11:35:38;;;;;;;3.50;1.00;;;;;;;-144.22;100.00;60274.75;6277461;28;20604;-71
2022/10/03 11:38:57;;;;;;;2.23;1.10;;;;;;;-144.22;100.00;60274.75;6276979;28;20226;-70
2022/10/03 11:42:39;;;;;;;4.07;1.33;;;;;;;-144.22;100.00;60274.75;6277451;28;20238;-70
2022/10/03 11:45:54;;;;;;;3.50;1.03;;;;;;;-144.22;100.00;60274.75;6276729;28;20248;-71
2022/10/03 11:49:30;;;;;;;2.43;1.10;;;;;;;-144.22;100.00;60274.75;6278167;28;20226;-70
2022/10/03 11:52:57;;;;;;;2.67;1.10;;;;;;;-144.22;100.00;60274.75;6260104;28;20727;-70
2022/10/03 11:56:11;;;;;;;4.57;1.30;;;;;;;-144.22;100.00;60274.75;6266422;28;20780;-70
2022/10/03 11:59:28;;;;;;;3.13;1.07;;;;;;;-144.22;100.00;60274.75;6252668;28;20702;-70
2022/10/03 12:03:09;;;;;;;4.70;1.20;;;;;;;-144.22;100.00;60274.75;6234472;28;20262;-64
2022/10/03 12:10:09;;;;;;;2.67;1.13;;;;;;;-144.22;100.00;60274.75;6276711;28;20223;-72
2022/10/03 12:13:21;;;;;;;5.83;1.13;;;;;;;-144.22;100.00;60274.75;6269980;28;20767;-70
2022/10/03 12:16:30;;;;;;;4.93;1.17;;;;;;;-144.22;100.00;60274.75;6259114;28;20242;-72
2022/10/03 12:19:36;;;;;;;2.90;1.20;;;;;;;-144.22;100.00;60274.75;6278501;28;20705;-72
2022/10/03 12:22:50;;;;;;;6.63;1.30;;;;;;;-144.22;100.00;60274.75;6280587;28;20565;-71
2022/10/03 12:25:55;;;;;;;4.10;1.20;;;;;;;-144.22;100.00;60274.75;6282509;28;20238;-71
2022/10/03 12:28:59;;;;;;;3.13;1.40;;;;;;;-144.22;100.00;60274.75;6282864;28;20242;-71
2022/10/03 12:32:28;;;;;;;4.30;1.00;;;;;;;-144.22;100.00;60274.75;6284535;28;20233;-72
2022/10/03 12:35:56;;;;;;;3.47;0.93;;;;;;;-144.22;100.00;60274.75;6282871;28;20640;-71
2022/10/03 12:39:30;;;;;;;1.43;0.70;;;;;;;-144.22;100.00;60274.75;6282004;28;20236;-70
2022/10/03 12:42:52;;;;;;;2.43;0.60;;;;;;;-144.22;100.00;60274.75;6281755;28;20234;-71
2022/10/03 12:46:02;;;;;;;0.80;0.50;;;;;;;-144.22;100.00;60274.75;6264736;28;20234;-71
2022/10/03 12:49:16;;;;;;;3.50;0.77;;;;;;;-144.22;100.00;60274.75;6283512;28;20227;-72
2022/10/03 12:52:27;;;;;;;1.97;0.60;;;;;;;-144.22;100.00;60274.75;6281421;28;20242;-70
2022/10/03 12:55:33;;;;;;;1.77;0.60;;;;;;;-144.22;100.00;60274.75;6257145;28;20215;-70
2022/10/03 12:59:06;;;;;;;1.60;0.53;;;;;;;-144.22;100.00;60274.75;6238325;28;20228;-69
2022/10/03 13:02:29;;;;;;;2.83;0.50;;;;;;;-144.22;100.00;60274.75;6250597;28;20250;-70
2022/10/03 13:05:37;;;;;;;1.07;0.50;;;;;;;-144.22;100.00;60274.75;6238975;28;20227;-70
2022/10/03 13:08:43;;;;;;;1.90;0.40;;;;;;;19.21;48.99;98185.41;6257448;28;20232;-69
2022/10/03 13:12:16;;;;;;;0.70;0.57;;;;;;;19.80;100.00;60274.75;6238519;28;20235;-70
2022/10/03 13:15:55;;;;;;;2.33;0.60;;;;;;;-144.22;100.00;60274.75;6255309;28;20250;-70
2022/10/03 13:19:24;;;;;;;1.10;0.67;;;;;;;-144.22;100.00;60274.75;6255282;28;20242;-70
2022/10/03 13:23:06;;;;;;;1.23;0.60;;;;;;;-144.22;100.00;60274.75;6255420;28;20249;-70
2022/10/03 13:26:22;;;;;;;1.93;0.70;;;;;;;-144.22;100.00;60274.75;6245146;28;20650;-71
2022/10/03 13:29:39;;;;;;;1.90;0.63;;;;;;;-144.22;100.00;60274.75;6255274;28;20232;-72
2022/10/03 13:32:46;;;;;;;4.30;0.70;;;;;;;-144.22;100.00;60274.75;6256715;28;20223;-69
2022/10/03 13:36:01;;;;;;;1.27;0.50;;;;;;;-144.22;100.00;60274.75;6280813;28;20306;-70
2022/10/03 13:39:25;;;;;;;1.23;0.57;;;;;;;-144.22;100.00;60274.75;6279521;28;20219;-71
2022/10/03 13:42:34;;;;;;;0.60;0.47;;;;;;;-144.22;100.00;60274.75;6279839;28;20643;-70
2022/10/03 13:45:43;;;;;;;0.77;0.40;;;;;;;-144.22;100.00;60274.75;6280152;28;20227;-70
2022/10/03 13:48:56;;;;;;;0.90;0.40;;;;;;;29.53;100.00;60274.75;6262557;28;20222;-70
2022/10/03 13:52:40;;;;;;;1.13;0.47;;;;;;;-144.22;100.00;60274.75;6261917;28;20231;-69
2022/10/03 13:55:49;;;;;;;0.87;0.40;;;;;;;-144.22;100.00;60274.75;6253784;28;20599;-70
2022/10/03 13:59:16;;;;;;;5.77;0.60;;;;;;;19.99;43.83;98159.81;6254723;28;20721;-69
2022/10/03 14:02:58;;;;;;;4.07;0.60;;;;;;;18.07;48.57;98171.56;6255654;28;20277;-69
2022/10/03 14:06:09;;;;;;;1.23;0.83;;;;;;;17.21;50.33;98167.91;6237629;28;20266;-69
2022/10/03 14:09:11;;;;;;;2.83;0.47;;;;;;;16.36;51.54;98168.28;6254255;28;20215;-70
2022/10/03 14:12:45;;;;;;;2.00;0.50;;;;;;;16.21;54.13;98160.75;6253295;28;20202;-70
2022/10/03 14:16:13;;;;;;;1.63;0.63;;;;;;;16.04;54.46;98155.38;6235920;28;20615;-71
2022/10/03 14:19:19;;;;;;;0.60;0.40;;;;;;;16.02;54.74;98150.19;6254264;28;20770;-70
2022/10/03 14:22:51;;;;;;;0.70;0.50;;;;;;;15.98;54.91;98162.09;6236563;28;20241;-70
2022/10/03 14:26:01;;;;;;;2.00;0.53;;;;;;;15.87;54.83;98152.47;6254797;28;20721;-71
2022/10/03 14:29:25;;;;;;;1.40;0.63;;;;;;;15.36;56.38;98163.47;6243660;28;20595;-71
2022/10/03 14:32:51;;;;;;;1.10;0.50;;;;;;;15.14;56.68;98145.16;6237016;28;20246;-69
2022/10/03 14:35:58;;;;;;;1.57;0.63;;;;;;;14.76;56.48;98152.13;6278855;28;20739;-70
2022/10/03 14:39:15;;;;;;;1.30;0.50;;;;;;;14.42;58.47;98160.56;6277758;28;20227;-70
2022/10/03 14:42:31;;;;;;;1.57;0.60;;;;;;;14.20;58.54;98132.38;6260772;28;20211;-70
2022/10/03 14:45:42;;;;;;;0.87;0.60;;;;;;;14.00;59.90;98145.56;6278198;28;20235;-68
2022/10/03 14:48:49;;;;;;;2.93;0.60;;;;;;;13.98;59.73;98133.41;6261933;28;20234;-70
2022/10/03 14:52:23;;;;;;;0.77;0.50;;;;;;;13.96;59.96;98145.97;6278564;28;20660;-70
2022/10/03 14:55:31;;;;;;;1.50;0.70;;;;;;;13.98;59.26;98163.44;6269758;28;20226;-71
2022/10/03 14:58:43;;;;;;;1.50;0.57;;;;;;;14.18;58.54;98148.41;6302826;28;20558;-69
2022/10/03 15:01:53;;;;;;;1.63;0.70;;;;;;;14.07;58.13;98151.19;6284146;28;20593;-70
2022/10/03 15:05:06;;;;;;;1.47;0.60;;;;;;;13.95;59.46;98165.53;6256789;28;20238;-69
2022/10/03 15:08:16;;;;;;;1.10;0.80;;;;;;;13.81;60.32;98169.34;6253105;28;20227;-70
2022/10/03 15:11:32;;;;;;;2.40;0.90;;;;;;;13.73;61.28;98168.34;6253336;28;20242;-70
2022/10/03 15:14:39;;;;;;;1.20;0.70;;;;;;;13.62;63.39;98159.47;6252724;28;20234;-70
2022/10/03 15:17:52;;;;;;;1.90;0.70;;;;;;;13.65;65.08;98145.13;6253892;28;20304;-70
2022/10/03 15:20:57;;;;;;;3.60;0.87;;;;;;;13.66;65.36;98152.09;6234783;28;20682;-69
2022/10/03 15:24:11;;;;;;;2.37;0.80;;;;;;;13.56;64.06;98141.44;6236036;28;20813;-70
2022/10/03 15:27:20;;;;;;;2.03;0.80;;;;;;;13.34;65.03;98152.16;6253126;28;20227;-69
2022/10/03 15:30:34;;;;;;;1.37;0.83;;;;;;;13.12;64.68;98139.00;6252273;28;20231;-70